Time;durP1;ratioP1;P1;durP2;ratioP2;P2;SDS_P1;SDS_P2;PMS_P1;PMS_P2;Temp;Humidity;BMP_temperature;BMP_pressure;BME280_temperature;BME280_humidity;BME280_pressure;Samples;Min_cycle;Max_cycle;Signal;HPM_P1;HPM_P2
2021/12/01 00:01:17;;;;;;;41.17;14.35;;;8.40;99.90;;;;;;4916183;29;20154;-87
2021/12/01 00:04:04;;;;;;;41.78;14.93;;;8.50;99.90;;;;;;4916574;29;20444;-87
2021/12/01 00:06:29;;;;;;;43.30;15.32;;;8.00;99.90;;;;;;4915435;29;20082;-87
2021/12/01 00:09:24;;;;;;;38.60;14.68;;;8.10;99.90;;;;;;4933110;29;20578;-87
2021/12/01 00:11:53;;;;;;;44.65;15.85;;;8.10;99.90;;;;;;4900179;29;20146;-87
2021/12/01 00:14:19;;;;;;;48.05;16.92;;;8.10;99.90;;;;;;4916195;29;20406;-88
2021/12/01 00:16:44;;;;;;;44.22;15.82;;;8.80;99.90;;;;;;4916946;29;20063;-87
2021/12/01 00:19:10;;;;;;;44.03;16.00;;;8.20;99.90;;;;;;4916756;29;20047;-87
2021/12/01 00:21:45;;;;;;;41.38;15.30;;;8.20;99.90;;;;;;4931693;29;20048;-87
2021/12/01 00:24:10;;;;;;;41.45;16.50;;;8.30;99.90;;;;;;4916551;29;20047;-86
2021/12/01 00:26:39;;;;;;;47.90;18.10;;;8.70;99.90;;;;;;4932594;29;20130;-86
2021/12/01 00:29:05;;;;;;;43.55;17.23;;;8.80;99.90;;;;;;4932020;29;20567;-87
2021/12/01 00:31:35;;;;;;;42.55;17.60;;;8.40;99.90;;;;;;4931994;29;20044;-86
2021/12/01 00:34:01;;;;;;;45.17;19.25;;;8.90;99.90;;;;;;4931996;29;20087;-87
2021/12/01 00:36:28;;;;;;;45.35;21.08;;;8.80;99.90;;;;;;4931675;29;20039;-86
2021/12/01 00:39:04;;;;;;;47.45;21.90;;;8.60;99.90;;;;;;4932202;29;20067;-86
2021/12/01 00:41:29;;;;;;;57.55;24.00;;;8.60;99.90;;;;;;4931303;29;20142;-86
2021/12/01 00:43:55;;;;;;;59.80;25.52;;;9.10;99.90;;;;;;4916662;29;20591;-86
2021/12/01 00:46:40;;;;;;;53.55;24.35;;;9.20;99.90;;;;;;4931729;29;20051;-86
2021/12/01 00:49:07;;;;;;;56.80;26.23;;;8.80;99.90;;;;;;4930999;29;20047;-86
2021/12/01 00:51:37;;;;;;;47.63;25.73;;;8.80;99.90;;;;;;4931853;29;20087;-86
2021/12/01 00:54:03;;;;;;;50.53;26.83;;;9.00;99.90;;;;;;4931761;29;20051;-85
2021/12/01 00:56:28;;;;;;;58.28;26.92;;;9.80;99.90;;;;;;4929434;29;20047;-86
2021/12/01 00:58:54;;;;;;;50.55;25.98;;;9.50;99.90;;;;;;4931407;29;20090;-86
2021/12/01 01:01:27;;;;;;;46.30;24.13;;;9.10;99.90;;;;;;4931511;29;20086;-86
2021/12/01 01:03:53;;;;;;;51.60;25.58;;;8.90;99.90;;;;;;4930245;29;20491;-85
2021/12/01 01:06:19;;;;;;;55.53;27.17;;;9.30;99.90;;;;;;4931782;29;20072;-86
2021/12/01 01:08:46;;;;;;;41.70;23.13;;;9.00;99.90;;;;;;4930953;29;20519;-85
2021/12/01 01:16:44;;;;;;;43.22;22.73;;;9.00;99.90;;;;;;4930258;29;20814;-85
2021/12/01 01:19:13;;;;;;;42.05;22.00;;;9.00;99.90;;;;;;4930006;29;20539;-85
2021/12/01 01:21:46;;;;;;;38.63;21.52;;;9.10;99.90;;;;;;4930853;29;20048;-85
2021/12/01 01:24:13;;;;;;;;;;;9.30;99.90;;;;;;4930585;29;20039;-86
2021/12/01 01:26:39;;;;;;;34.28;19.25;;;9.70;99.90;;;;;;4931039;29;19978;-86
2021/12/01 01:29:21;;;;;;;35.95;19.23;;;9.50;99.90;;;;;;4914945;29;20514;-85
2021/12/01 01:31:57;;;;;;;35.25;18.63;;;9.50;99.90;;;;;;4914031;29;20126;-85
2021/12/01 01:34:25;;;;;;;31.23;18.38;;;9.10;99.90;;;;;;4929931;29;20046;-85
2021/12/01 01:37:00;;;;;;;35.97;16.10;;;9.10;99.90;;;;;;4931271;29;20047;-85
2021/12/01 01:39:29;;;;;;;38.45;18.02;;;9.10;99.90;;;;;;4929509;29;20508;-85
2021/12/01 01:41:54;;;;;;;31.40;16.23;;;9.10;99.90;;;;;;4915459;29;20056;-85
2021/12/01 01:44:20;;;;;;;33.80;14.85;;;9.60;99.90;;;;;;4930490;29;20102;-85
2021/12/01 01:46:46;;;;;;;29.05;14.38;;;9.10;99.90;;;;;;4928916;29;20412;-85
2021/12/01 01:49:19;;;;;;;36.67;15.15;;;9.50;99.90;;;;;;4914584;29;20043;-85
2021/12/01 01:51:46;;;;;;;27.80;14.23;;;9.50;99.90;;;;;;4930198;29;20047;-85
2021/12/01 01:54:13;;;;;;;24.55;13.30;;;9.20;99.90;;;;;;4914507;29;20566;-85
2021/12/01 01:56:39;;;;;;;29.15;13.40;;;9.20;99.90;;;;;;4930703;29;20039;-85
2021/12/01 01:59:05;;;;;;;25.13;11.88;;;9.50;99.90;;;;;;4915030;29;20128;-85
2021/12/01 02:01:44;;;;;;;25.13;10.40;;;9.30;99.90;;;;;;4914254;29;20063;-85
2021/12/01 02:04:13;;;;;;;25.90;9.52;;;9.20;99.90;;;;;;4913992;29;20035;-85
2021/12/01 02:06:39;;;;;;;24.88;9.25;;;9.20;99.90;;;;;;4914161;29;20472;-86
2021/12/01 02:09:06;;;;;;;19.45;8.50;;;9.30;99.90;;;;;;4914481;29;20134;-85
2021/12/01 02:11:38;;;;;;;20.65;7.60;;;9.20;99.90;;;;;;4914991;29;20043;-85
2021/12/01 02:14:05;;;;;;;17.50;7.15;;;9.20;99.90;;;;;;4929697;29;20075;-86
2021/12/01 02:16:31;;;;;;;20.75;7.78;;;9.30;99.90;;;;;;4930060;29;20162;-85
2021/12/01 02:18:57;;;;;;;16.90;6.47;;;9.60;99.90;;;;;;4929851;29;20062;-85
2021/12/01 02:21:31;;;;;;;23.88;5.88;;;9.30;99.90;;;;;;4929592;29;20055;-86
2021/12/01 02:24:00;;;;;;;15.98;5.30;;;9.80;99.90;;;;;;4919342;29;20043;-85
2021/12/01 02:26:28;;;;;;;9.88;3.92;;;9.30;99.90;;;;;;4946399;29;20127;-85
2021/12/01 02:28:57;;;;;;;11.75;4.40;;;9.30;99.90;;;;;;4929788;29;20480;-85
2021/12/01 02:31:26;;;;;;;11.55;3.50;;;9.30;99.90;;;;;;4930697;29;20070;-85
2021/12/01 02:33:53;;;;;;;14.55;3.55;;;9.20;99.90;;;;;;4912394;29;20086;-85
2021/12/01 02:36:22;;;;;;;11.07;2.80;;;9.20;99.90;;;;;;4912876;29;20484;-84
2021/12/01 02:38:49;;;;;;;13.05;2.65;;;9.20;99.90;;;;;;4929768;29;20075;-85
2021/12/01 02:41:16;;;;;;;13.75;2.60;;;9.30;99.90;;;;;;4913089;29;20507;-85
2021/12/01 02:43:44;;;;;;;8.57;1.75;;;9.50;99.90;;;;;;4913978;29;20051;-86
2021/12/01 02:46:09;;;;;;;6.30;1.80;;;9.40;99.90;;;;;;4914430;29;20040;-86
2021/12/01 02:48:41;;;;;;;10.02;1.90;;;9.30;99.90;;;;;;4912473;29;20258;-86
2021/12/01 02:51:08;;;;;;;8.18;1.90;;;9.40;99.90;;;;;;4914387;29;20512;-85
2021/12/01 02:53:34;;;;;;;8.48;2.00;;;9.80;99.90;;;;;;4913963;29;20043;-85
2021/12/01 02:56:03;;;;;;;7.70;1.65;;;9.30;99.90;;;;;;4913034;29;20510;-85
2021/12/01 02:58:32;;;;;;;6.80;1.48;;;9.30;99.90;;;;;;4913639;29;20620;-85
2021/12/01 03:01:02;;;;;;;7.07;1.80;;;9.30;99.90;;;;;;4913684;29;20411;-85
2021/12/01 03:03:28;;;;;;;4.80;1.25;;;9.30;99.90;;;;;;4912017;29;20043;-85
2021/12/01 03:05:56;;;;;;;5.50;1.38;;;9.40;99.90;;;;;;4913568;29;20054;-85
2021/12/01 03:08:22;;;;;;;5.05;1.00;;;9.40;99.90;;;;;;4913865;29;20044;-86
2021/12/01 03:10:51;;;;;;;6.25;1.23;;;9.40;99.90;;;;;;4928839;29;20058;-84
2021/12/01 03:13:25;;;;;;;5.40;0.93;;;9.40;99.90;;;;;;4913419;29;20059;-85
2021/12/01 03:15:52;;;;;;;7.28;1.38;;;9.40;99.90;;;;;;4929175;29;20085;-84
2021/12/01 03:18:18;;;;;;;8.20;1.88;;;9.60;99.90;;;;;;4927850;29;20539;-85
2021/12/01 03:20:44;;;;;;;10.05;1.42;;;9.50;99.90;;;;;;4929184;29;20083;-85
2021/12/01 03:23:10;;;;;;;7.65;1.50;;;9.50;99.90;;;;;;4944871;29;20091;-84
2021/12/01 03:25:36;;;;;;;9.73;1.85;;;9.40;99.90;;;;;;4945365;29;20110;-85
2021/12/01 03:28:03;;;;;;;7.95;1.98;;;9.40;99.90;;;;;;4945701;29;20051;-86
2021/12/01 03:30:33;;;;;;;7.63;1.85;;;9.40;99.90;;;;;;4944276;29;20032;-86
2021/12/01 03:33:09;;;;;;;11.38;1.42;;;9.40;99.90;;;;;;4913751;29;20055;-86
2021/12/01 03:35:37;;;;;;;8.68;1.40;;;9.40;99.90;;;;;;4931396;29;20131;-86
2021/12/01 03:38:04;;;;;;;10.55;1.30;;;9.40;99.90;;;;;;4932151;29;20048;-86
2021/12/01 03:40:29;;;;;;;8.13;1.40;;;9.50;99.90;;;;;;4948295;29;20524;-84
2021/12/01 03:42:56;;;;;;;15.68;2.10;;;9.80;99.90;;;;;;4933266;29;20044;-85
2021/12/01 03:45:21;;;;;;;10.75;1.80;;;9.50;99.90;;;;;;4931741;29;20522;-85
2021/12/01 03:47:47;;;;;;;11.88;1.90;;;9.50;99.90;;;;;;4932247;29;20213;-86
2021/12/01 03:50:13;;;;;;;15.00;1.90;;;9.50;99.90;;;;;;4940229;29;20051;-86
2021/12/01 03:52:52;;;;;;;17.20;1.95;;;9.50;99.90;;;;;;4963686;28;20086;-85
2021/12/01 03:55:21;;;;;;;8.00;1.50;;;9.50;99.90;;;;;;4932478;29;20575;-86
2021/12/01 03:57:46;;;;;;;11.05;2.13;;;9.50;99.90;;;;;;4932873;29;20051;-86
2021/12/01 04:00:15;;;;;;;13.82;1.55;;;9.40;99.90;;;;;;4916082;29;20040;-86
2021/12/01 04:02:41;;;;;;;17.77;2.63;;;9.40;99.90;;;;;;4932098;29;20130;-86
2021/12/01 04:05:08;;;;;;;15.43;2.10;;;9.40;99.90;;;;;;4964587;28;20570;-85
2021/12/01 04:07:33;;;;;;;16.85;2.05;;;9.50;99.90;;;;;;4963288;28;20048;-85
2021/12/01 04:10:09;;;;;;;25.02;3.10;;;9.50;99.90;;;;;;4917591;29;20491;-85
2021/12/01 04:12:35;;;;;;;24.60;2.55;;;9.40;99.90;;;;;;4915257;29;20063;-86
2021/12/01 04:15:04;;;;;;;22.85;2.90;;;9.40;99.90;;;;;;4932233;29;20294;-86
2021/12/01 04:17:35;;;;;;;16.13;2.60;;;9.40;99.90;;;;;;4962396;28;20055;-86
2021/12/01 04:20:01;;;;;;;15.77;2.65;;;9.40;99.90;;;;;;4930978;29;20048;-86
2021/12/01 04:22:26;;;;;;;15.90;2.95;;;9.80;99.90;;;;;;4931845;29;20044;-86
2021/12/01 04:24:52;;;;;;;17.65;2.92;;;9.30;99.90;;;;;;4932353;29;20594;-86
2021/12/01 04:27:18;;;;;;;22.83;2.78;;;9.30;99.90;;;;;;4931399;29;20139;-86
2021/12/01 04:29:45;;;;;;;14.93;2.28;;;9.30;99.90;;;;;;4915965;29;20040;-87
2021/12/01 04:32:13;;;;;;;14.23;3.05;;;9.30;99.90;;;;;;4932257;29;20484;-86
2021/12/01 04:34:49;;;;;;;19.05;3.45;;;9.30;99.90;;;;;;4946496;29;20044;-86
2021/12/01 04:37:15;;;;;;;11.70;2.33;;;9.30;99.90;;;;;;4931721;29;20207;-86
2021/12/01 04:39:41;;;;;;;15.13;2.55;;;9.30;99.90;;;;;;4931897;29;20044;-86
2021/12/01 04:42:19;;;;;;;14.02;2.58;;;9.90;99.90;;;;;;4931979;29;20047;-87
2021/12/01 04:44:45;;;;;;;10.60;2.38;;;9.30;99.90;;;;;;4932377;29;20101;-87
2021/12/01 04:47:14;;;;;;;11.57;2.30;;;9.60;99.90;;;;;;4931183;29;20052;-87
2021/12/01 04:49:40;;;;;;;9.80;1.95;;;9.30;99.90;;;;;;4931165;29;20511;-87
2021/12/01 04:52:15;;;;;;;7.18;1.30;;;9.30;99.90;;;;;;4932354;29;20043;-87
2021/12/01 04:54:43;;;;;;;6.03;1.63;;;9.20;99.90;;;;;;4915731;29;20043;-87
2021/12/01 04:57:24;;;;;;;6.63;1.65;;;10.00;99.90;;;;;;4932302;29;20051;-88
2021/12/01 05:00:03;;;;;;;6.68;1.80;;;9.60;99.90;;;;;;4931341;29;20052;-87
2021/12/01 05:02:28;;;;;;;5.00;1.50;;;9.30;99.90;;;;;;4930493;29;20051;-87
2021/12/01 05:04:54;;;;;;;5.38;1.70;;;10.10;99.90;;;;;;4931428;29;20051;-87
2021/12/01 05:07:20;;;;;;;5.35;1.90;;;9.30;99.90;;;;;;4931808;29;20051;-87
2021/12/01 05:09:45;;;;;;;7.28;2.05;;;9.50;99.90;;;;;;4946809;29;20043;-87
2021/12/01 05:12:20;;;;;;;4.70;1.60;;;9.30;99.90;;;;;;4932380;29;20519;-87
2021/12/01 05:14:46;;;;;;;4.70;1.92;;;9.30;99.90;;;;;;4931814;29;20056;-88
2021/12/01 05:17:13;;;;;;;4.88;2.10;;;9.30;99.90;;;;;;4915917;29;20373;-87
2021/12/01 05:19:47;;;;;;;3.53;1.67;;;9.30;99.90;;;;;;4915142;29;20051;-88
2021/12/01 05:22:13;;;;;;;2.58;1.25;;;9.20;99.90;;;;;;4900694;29;20523;-87
2021/12/01 05:24:39;;;;;;;5.57;1.38;;;9.70;99.90;;;;;;4915734;29;20048;-87
2021/12/01 05:27:08;;;;;;;3.22;1.45;;;9.20;99.90;;;;;;4932202;29;20056;-87
2021/12/01 05:29:34;;;;;;;3.38;1.10;;;9.20;99.90;;;;;;4947090;29;20050;-88
2021/12/01 05:31:59;;;;;;;2.53;1.00;;;9.20;99.90;;;;;;4931842;29;20047;-88
2021/12/01 05:34:26;;;;;;;2.35;1.00;;;10.10;99.90;;;;;;4946860;29;20055;-88
2021/12/01 05:36:52;;;;;;;2.30;1.00;;;9.20;99.90;;;;;;4935298;28;20387;-89
2021/12/01 05:39:32;;;;;;;3.78;1.08;;;9.90;99.90;;;;;;4934745;29;20431;-89
2021/12/01 05:41:58;;;;;;;4.18;0.90;;;9.10;99.90;;;;;;4934941;29;20058;-89
2021/12/01 05:44:36;;;;;;;4.18;1.48;;;9.10;99.90;;;;;;4933988;29;20471;-88
2021/12/01 05:47:46;;;;;;;2.47;1.20;;;9.10;99.90;;;;;;4934826;29;20106;-89
2021/12/01 05:50:13;;;;;;;3.38;1.50;;;9.10;99.90;;;;;;4950137;29;20043;-87
2021/12/01 05:52:48;;;;;;;3.15;1.50;;;9.10;99.90;;;;;;4934341;29;20050;-89
2021/12/01 05:55:14;;;;;;;3.05;1.20;;;9.50;99.90;;;;;;4933761;29;20047;-88
2021/12/01 05:57:39;;;;;;;3.40;1.42;;;9.10;99.90;;;;;;4933511;29;20047;-87
2021/12/01 06:00:20;;;;;;;3.63;1.83;;;9.10;99.90;;;;;;4933508;29;20082;-87
2021/12/01 06:02:50;;;;;;;3.67;1.73;;;9.70;99.90;;;;;;4924259;29;20051;-88
2021/12/01 06:05:17;;;;;;;4.45;1.80;;;9.80;99.90;;;;;;4929781;29;20515;-87
2021/12/01 06:07:52;;;;;;;3.90;1.77;;;9.10;99.90;;;;;;4930775;29;20091;-87
2021/12/01 06:10:18;;;;;;;4.68;2.13;;;9.00;99.90;;;;;;4915030;29;20511;-87
2021/12/01 06:12:45;;;;;;;4.40;2.08;;;9.00;99.90;;;;;;4913962;29;20134;-87
2021/12/01 06:15:27;;;;;;;4.60;1.85;;;9.00;99.90;;;;;;4930856;29;20500;-86
2021/12/01 06:18:29;;;;;;;3.65;1.85;;;9.50;99.90;;;;;;4930674;29;20138;-87
2021/12/01 06:20:46;;;;;;;4.15;1.88;;;9.00;99.90;;;;;;4928135;29;20055;-88
2021/12/01 06:23:13;;;;;;;3.92;1.98;;;9.00;99.90;;;;;;4931154;29;20043;-88
2021/12/01 06:25:39;;;;;;;4.22;2.17;;;8.90;99.90;;;;;;4931019;29;20508;-88
2021/12/01 06:28:05;;;;;;;4.25;2.00;;;8.90;99.90;;;;;;4914583;29;20090;-89
2021/12/01 06:30:36;;;;;;;2.85;1.67;;;8.90;99.90;;;;;;4914989;29;20052;-88
2021/12/01 06:33:02;;;;;;;3.40;2.13;;;8.90;99.90;;;;;;4930021;29;20106;-88
2021/12/01 06:35:29;;;;;;;3.55;1.90;;;8.90;99.90;;;;;;4915107;29;20055;-87
2021/12/01 06:38:10;;;;;;;3.42;1.75;;;8.90;99.90;;;;;;4914602;29;20043;-87
2021/12/01 06:40:36;;;;;;;3.20;1.50;;;8.80;99.90;;;;;;4929432;29;20087;-87
2021/12/01 06:43:08;;;;;;;5.50;1.90;;;9.10;99.90;;;;;;4931513;29;20079;-88
2021/12/01 06:45:34;;;;;;;3.20;1.70;;;8.80;99.90;;;;;;4929988;29;20052;-88
2021/12/01 06:48:00;;;;;;;3.88;1.77;;;9.30;99.90;;;;;;4929634;29;20044;-87
2021/12/01 06:50:29;;;;;;;3.40;2.00;;;8.80;99.90;;;;;;4914952;29;20103;-88
2021/12/01 06:52:54;;;;;;;3.53;1.88;;;8.70;99.90;;;;;;4914696;29;20060;-87
2021/12/01 06:55:32;;;;;;;2.58;1.73;;;8.70;99.90;;;;;;4914374;29;20593;-88
2021/12/01 06:57:57;;;;;;;4.78;2.00;;;8.70;99.90;;;;;;4931550;29;20056;-87
2021/12/01 07:00:25;;;;;;;5.13;1.58;;;8.80;99.90;;;;;;4914982;29;20047;-89
2021/12/01 07:02:52;;;;;;;3.55;1.80;;;8.70;99.90;;;;;;4915522;29;20079;-89
2021/12/01 07:05:21;;;;;;;3.47;2.10;;;8.70;99.90;;;;;;4932980;29;20055;-88
2021/12/01 07:07:52;;;;;;;2.95;1.65;;;8.70;99.90;;;;;;4934500;29;20051;-88
2021/12/01 07:10:18;;;;;;;4.00;2.42;;;8.40;99.90;;;;;;4935557;29;20040;-87
2021/12/01 07:12:44;;;;;;;4.70;2.30;;;8.70;99.90;;;;;;4934116;29;20067;-88
2021/12/01 07:15:24;;;;;;;;;;;;;;;;;;;;;
2021/12/01 07:17:53;;;;;;;;;;;8.60;99.90;;;;;;4935035;29;20066;-88
2021/12/01 07:20:31;;;;;;;5.55;1.70;;;8.60;99.90;;;;;;4933310;29;19927;-88
2021/12/01 07:22:57;;;;;;;3.42;1.58;;;8.60;99.90;;;;;;4916939;29;20047;-87
2021/12/01 07:25:23;;;;;;;4.70;1.55;;;8.60;99.90;;;;;;4934496;23;20043;-87
2021/12/01 07:27:49;;;;;;;4.28;1.95;;;8.60;99.90;;;;;;4934085;29;20106;-88
2021/12/01 07:30:21;;;;;;;5.20;2.20;;;8.60;99.90;;;;;;4933324;29;20085;-89
2021/12/01 07:33:06;;;;;;;6.13;2.40;;;8.60;99.90;;;;;;4933432;29;20098;-89
2021/12/01 07:36:17;;;;;;;5.22;2.55;;;8.60;99.90;;;;;;4947473;29;20086;-90
2021/12/01 07:42:49;;;;;;;7.35;2.50;;;8.50;99.90;;;;;;4971632;28;20054;-90
2021/12/01 07:45:24;;;;;;;4.50;2.58;;;8.60;99.90;;;;;;4969595;28;20046;-89
2021/12/01 07:48:05;;;;;;;5.15;2.45;;;8.60;99.90;;;;;;4955816;28;20050;-89
2021/12/01 07:50:37;;;;;;;4.35;2.10;;;9.60;99.90;;;;;;4955678;28;20046;-90
2021/12/01 07:53:03;;;;;;;8.05;2.40;;;8.80;99.90;;;;;;4963561;23;20043;-89
2021/12/01 07:55:29;;;;;;;4.45;2.42;;;8.70;99.90;;;;;;4935260;29;20051;-88
2021/12/01 07:57:55;;;;;;;7.80;2.70;;;9.60;99.90;;;;;;4935873;29;20043;-88
2021/12/01 08:00:20;;;;;;;10.70;3.20;;;8.70;99.90;;;;;;4936240;29;20130;-90
2021/12/01 08:02:46;;;;;;;6.45;2.78;;;8.80;99.90;;;;;;4936028;29;20051;-87
2021/12/01 08:05:15;;;;;;;6.95;2.90;;;9.80;99.90;;;;;;4934947;29;20043;-86
2021/12/01 08:07:44;;;;;;;5.90;3.03;;;8.80;99.90;;;;;;4936995;29;20043;-90
2021/12/01 08:10:10;;;;;;;6.68;2.80;;;8.80;99.90;;;;;;4937145;29;20093;-89
2021/12/01 08:13:52;;;;;;;;;;;;;;;;;;;;;
2021/12/01 08:18:44;;;;;;;5.82;2.80;;;8.80;99.90;;;;;;4980012;23;20151;-86
2021/12/01 08:21:10;;;;;;;6.38;3.10;;;8.80;99.90;;;;;;4935388;29;20039;-86
2021/12/01 08:23:36;;;;;;;8.25;2.90;;;8.80;99.90;;;;;;4935088;29;20047;-86
2021/12/01 08:26:02;;;;;;;10.07;3.15;;;8.80;99.90;;;;;;4950302;29;20058;-85
2021/12/01 08:28:28;;;;;;;5.68;2.67;;;8.90;99.90;;;;;;4934438;29;20043;-85
2021/12/01 08:30:53;;;;;;;9.93;3.10;;;8.90;99.90;;;;;;4919109;29;20348;-86
2021/12/01 08:33:20;;;;;;;7.72;3.35;;;8.90;99.90;;;;;;4932977;29;20054;-86
2021/12/01 08:35:46;;;;;;;6.75;3.13;;;8.80;99.90;;;;;;4934738;29;20047;-85
2021/12/01 08:38:12;;;;;;;7.35;2.90;;;8.90;99.90;;;;;;4934554;29;20097;-86
2021/12/01 08:40:40;;;;;;;10.30;2.88;;;8.90;99.90;;;;;;4949231;29;20785;-85
2021/12/01 08:43:06;;;;;;;7.40;2.10;;;9.20;99.90;;;;;;4934484;29;20078;-85
2021/12/01 08:45:34;;;;;;;8.80;1.13;;;8.90;99.90;;;;;;4935396;29;20047;-86
2021/12/01 08:48:03;;;;;;;5.15;1.45;;;8.90;99.90;;;;;;4932817;29;20071;-84
2021/12/01 08:50:29;;;;;;;5.28;1.95;;;8.90;99.90;;;;;;4934335;29;20039;-85
2021/12/01 08:53:07;;;;;;;7.18;1.42;;;8.90;99.90;;;;;;4934487;29;20046;-85
2021/12/01 08:55:33;;;;;;;8.20;1.30;;;8.50;99.90;;;;;;4948054;29;20047;-85
2021/12/01 08:58:01;;;;;;;8.10;1.40;;;8.90;99.90;;;;;;4934116;29;20086;-84
2021/12/01 09:00:28;;;;;;;8.55;1.52;;;8.90;99.90;;;;;;4934036;29;20175;-84
2021/12/01 09:02:59;;;;;;;9.15;1.70;;;9.30;99.90;;;;;;4933212;29;20043;-83
2021/12/01 09:05:24;;;;;;;7.55;1.65;;;8.90;99.90;;;;;;4931600;29;20046;-84
2021/12/01 09:07:50;;;;;;;12.77;1.92;;;8.90;99.90;;;;;;4932586;29;20039;-85
2021/12/01 09:10:19;;;;;;;7.97;1.45;;;9.00;99.90;;;;;;4949701;29;20514;-85
2021/12/01 09:12:45;;;;;;;9.35;1.98;;;9.00;99.90;;;;;;4931110;29;20419;-85
2021/12/01 09:15:13;;;;;;;12.55;1.50;;;9.80;99.90;;;;;;4933106;29;20055;-84
2021/12/01 09:17:40;;;;;;;7.00;1.42;;;9.00;99.90;;;;;;4932795;29;20050;-85
2021/12/01 09:20:07;;;;;;;12.50;1.55;;;8.90;99.90;;;;;;4932941;29;20087;-84
2021/12/01 09:22:35;;;;;;;9.65;1.27;;;8.90;99.90;;;;;;4933202;29;20051;-84
2021/12/01 09:25:01;;;;;;;7.47;1.08;;;8.90;99.90;;;;;;4949632;29;20086;-84
2021/12/01 09:27:27;;;;;;;16.90;1.85;;;8.90;99.90;;;;;;4949483;29;20046;-85
2021/12/01 09:29:53;;;;;;;11.48;1.40;;;8.90;99.90;;;;;;4932751;29;20046;-83
2021/12/01 09:32:19;;;;;;;11.60;2.10;;;9.00;99.90;;;;;;4933288;29;20039;-83
2021/12/01 09:34:45;;;;;;;13.82;1.42;;;8.90;99.90;;;;;;4948658;29;20047;-84
2021/12/01 09:37:16;;;;;;;7.57;1.23;;;9.10;99.90;;;;;;4948330;29;20499;-83
2021/12/01 09:39:42;;;;;;;11.15;1.02;;;8.80;99.90;;;;;;4949088;29;20043;-83
2021/12/01 09:42:08;;;;;;;11.38;1.58;;;8.90;99.90;;;;;;4949088;29;20047;-83
2021/12/01 09:44:36;;;;;;;11.75;1.40;;;8.80;99.90;;;;;;4948619;29;20411;-83
2021/12/01 09:47:02;;;;;;;12.13;2.28;;;8.80;99.90;;;;;;4949008;29;20058;-83
2021/12/01 09:49:28;;;;;;;19.95;2.00;;;8.80;99.90;;;;;;4948226;29;20121;-84
2021/12/01 09:51:54;;;;;;;11.88;1.48;;;8.80;99.90;;;;;;4932898;29;20503;-84
2021/12/01 09:54:20;;;;;;;9.27;1.20;;;9.50;99.90;;;;;;4948810;29;20058;-84
2021/12/01 09:56:45;;;;;;;13.27;1.75;;;8.70;99.90;;;;;;4933541;29;20186;-84
2021/12/01 09:59:17;;;;;;;5.95;1.20;;;9.40;99.90;;;;;;4947847;29;20571;-83
2021/12/01 10:01:43;;;;;;;10.60;1.63;;;8.60;99.90;;;;;;4932353;29;20510;-83
2021/12/01 10:04:09;;;;;;;12.30;1.60;;;8.60;99.90;;;;;;4945514;29;20047;-84
2021/12/01 10:06:35;;;;;;;11.05;1.70;;;8.70;99.90;;;;;;4931434;29;20159;-84
2021/12/01 10:09:05;;;;;;;8.25;1.55;;;9.00;99.90;;;;;;4948174;29;20090;-85
2021/12/01 10:11:37;;;;;;;20.13;1.67;;;8.70;99.90;;;;;;4948047;29;20051;-84
2021/12/01 10:14:14;;;;;;;16.58;1.75;;;8.70;99.90;;;;;;4933097;29;20499;-84
2021/12/01 10:16:43;;;;;;;14.90;2.20;;;8.80;99.90;;;;;;4932218;29;20086;-84
2021/12/01 10:19:11;;;;;;;14.35;2.30;;;8.80;99.90;;;;;;4947626;29;20147;-84
2021/12/01 10:21:39;;;;;;;16.50;2.00;;;8.90;99.90;;;;;;4948753;29;20047;-84
2021/12/01 10:24:10;;;;;;;14.45;2.13;;;9.10;99.90;;;;;;4931153;29;20480;-85
2021/12/01 10:26:46;;;;;;;19.88;3.17;;;9.00;99.90;;;;;;4948597;29;20062;-84
2021/12/01 10:29:17;;;;;;;17.50;2.28;;;9.00;99.90;;;;;;4933306;29;20510;-85
2021/12/01 10:31:46;;;;;;;14.93;1.95;;;8.90;99.90;;;;;;4933346;29;20051;-83
2021/12/01 10:34:18;;;;;;;17.27;3.00;;;9.00;99.90;;;;;;4931492;29;20050;-86
2021/12/01 10:36:46;;;;;;;17.70;2.60;;;9.00;99.90;;;;;;4932912;29;20511;-84
2021/12/01 10:39:12;;;;;;;19.52;2.72;;;9.00;99.90;;;;;;4924312;29;20124;-85
2021/12/01 10:41:40;;;;;;;12.52;2.05;;;8.80;99.90;;;;;;4914155;29;20052;-86
2021/12/01 10:44:10;;;;;;;17.83;2.65;;;8.80;99.90;;;;;;4914980;29;20055;-85
2021/12/01 10:47:02;;;;;;;19.83;2.83;;;8.70;99.90;;;;;;4933160;29;20380;-86
2021/12/01 10:49:35;;;;;;;20.70;2.50;;;8.70;99.90;;;;;;4916903;29;20111;-85
2021/12/01 10:52:01;;;;;;;19.23;2.33;;;8.60;99.90;;;;;;4934459;29;20040;-85
2021/12/01 10:54:27;;;;;;;12.95;2.28;;;8.60;99.90;;;;;;4933241;29;20101;-85
2021/12/01 10:57:21;;;;;;;13.07;2.30;;;8.60;99.90;;;;;;4916597;29;20052;-85
2021/12/01 10:59:49;;;;;;;21.05;2.70;;;8.70;99.90;;;;;;4933860;29;20051;-86
2021/12/01 11:02:16;;;;;;;12.15;1.92;;;8.80;99.90;;;;;;4932328;29;20051;-85
2021/12/01 11:04:45;;;;;;;12.73;1.95;;;8.80;99.90;;;;;;4932892;29;20130;-84
2021/12/01 11:07:29;;;;;;;15.60;1.77;;;8.90;99.90;;;;;;4932861;29;20468;-85
2021/12/01 11:10:13;;;;;;;12.30;1.55;;;9.00;99.90;;;;;;4932982;29;20090;-85
2021/12/01 11:12:40;;;;;;;16.98;3.33;;;9.00;99.90;;;;;;4933080;29;20094;-85
2021/12/01 11:15:20;;;;;;;14.95;1.70;;;9.10;99.90;;;;;;4916963;29;20225;-85
2021/12/01 11:17:47;;;;;;;9.43;1.80;;;9.10;99.90;;;;;;4933201;29;20082;-85
2021/12/01 11:20:32;;;;;;;16.25;2.55;;;9.80;99.90;;;;;;4932046;29;20114;-84
2021/12/01 11:23:19;;;;;;;17.45;2.65;;;8.90;99.90;;;;;;4932000;29;20051;-85
2021/12/01 11:25:50;;;;;;;14.95;1.92;;;8.90;99.90;;;;;;4933048;29;20071;-84
2021/12/01 11:28:18;;;;;;;22.55;2.50;;;8.90;99.90;;;;;;4932920;29;20055;-85
2021/12/01 11:30:48;;;;;;;12.00;2.35;;;8.90;99.90;;;;;;4932633;29;20043;-84
2021/12/01 11:33:17;;;;;;;18.58;2.67;;;9.10;99.90;;;;;;4931603;29;20716;-84
2021/12/01 11:35:46;;;;;;;16.98;2.40;;;8.80;99.90;;;;;;4931969;29;20154;-86
2021/12/01 11:38:13;;;;;;;13.02;2.50;;;8.80;99.90;;;;;;4916704;29;20058;-84
2021/12/01 11:40:40;;;;;;;24.67;3.92;;;8.90;99.90;;;;;;4917148;29;20098;-85
2021/12/01 11:43:08;;;;;;;27.20;3.75;;;8.80;99.90;;;;;;4916221;29;20051;-84
2021/12/01 11:45:37;;;;;;;22.33;3.10;;;8.80;99.90;;;;;;4931613;29;20055;-85
2021/12/01 11:48:07;;;;;;;26.25;3.63;;;8.60;99.90;;;;;;4931758;29;20145;-84
2021/12/01 11:50:39;;;;;;;20.75;2.80;;;8.50;99.90;;;;;;4916341;29;20052;-84
2021/12/01 11:53:20;;;;;;;25.27;4.95;;;8.60;99.90;;;;;;4916646;29;20047;-84
2021/12/01 11:55:50;;;;;;;21.17;3.50;;;8.50;99.90;;;;;;4932321;29;20054;-84
2021/12/01 11:58:40;;;;;;;27.80;3.85;;;8.40;99.90;;;;;;4931864;29;20047;-84
2021/12/01 12:01:20;;;;;;;26.90;3.33;;;8.20;99.90;;;;;;4916901;29;20381;-85
2021/12/01 12:03:46;;;;;;;29.73;4.25;;;8.20;99.90;;;;;;4928260;29;20052;-83
2021/12/01 12:06:25;;;;;;;23.25;3.33;;;8.10;99.90;;;;;;4932131;29;20048;-83
2021/12/01 12:08:54;;;;;;;32.60;4.10;;;8.10;99.90;;;;;;4932029;29;20055;-83
2021/12/01 12:11:41;;;;;;;18.05;3.20;;;8.20;99.90;;;;;;4931870;29;20044;-83
2021/12/01 12:14:19;;;;;;;20.27;4.00;;;8.20;99.90;;;;;;4932382;29;20155;-83
2021/12/01 12:17:03;;;;;;;19.13;2.70;;;8.20;99.90;;;;;;4916456;29;20051;-83
2021/12/01 12:19:53;;;;;;;23.73;3.97;;;8.20;99.90;;;;;;4914456;29;20051;-84
2021/12/01 12:22:29;;;;;;;20.10;2.58;;;8.20;99.90;;;;;;4915791;29;20052;-83
2021/12/01 12:24:56;;;;;;;23.17;3.78;;;8.20;99.90;;;;;;4915946;29;20054;-83
2021/12/01 12:27:46;;;;;;;26.13;4.07;;;8.90;99.90;;;;;;4931565;29;20059;-83
2021/12/01 12:30:11;;;;;;;16.92;2.72;;;8.10;99.90;;;;;;4916087;29;20415;-83
2021/12/01 12:32:38;;;;;;;21.77;3.20;;;8.00;99.90;;;;;;4915284;29;20052;-83
2021/12/01 12:35:10;;;;;;;18.77;2.85;;;8.00;99.90;;;;;;4915298;29;20051;-82
2021/12/01 12:37:36;;;;;;;14.90;2.35;;;8.00;99.90;;;;;;4930896;29;20043;-83
2021/12/01 12:40:11;;;;;;;15.82;3.08;;;8.00;99.90;;;;;;4931003;29;20052;-83
2021/12/01 12:43:04;;;;;;;12.95;1.95;;;8.00;99.90;;;;;;4931644;29;20055;-82
2021/12/01 12:45:30;;;;;;;16.00;2.45;;;8.00;99.90;;;;;;4931699;29;20040;-83
2021/12/01 12:47:55;;;;;;;17.15;2.22;;;8.00;99.90;;;;;;4930828;29;20511;-83
2021/12/01 12:50:24;;;;;;;19.65;3.00;;;7.90;99.90;;;;;;4930954;29;20494;-83
2021/12/01 12:52:52;;;;;;;15.18;1.92;;;7.90;99.90;;;;;;4931772;29;20480;-83
2021/12/01 12:55:21;;;;;;;17.23;2.83;;;8.00;99.90;;;;;;4930685;29;20139;-83
2021/12/01 12:57:59;;;;;;;10.70;2.25;;;7.80;99.90;;;;;;4931796;29;20580;-83
2021/12/01 13:00:30;;;;;;;10.30;1.60;;;8.00;99.90;;;;;;4931036;29;20087;-83
2021/12/01 13:02:58;;;;;;;19.08;2.30;;;7.80;99.90;;;;;;4930799;29;20063;-83
2021/12/01 13:05:37;;;;;;;15.48;2.50;;;7.70;99.90;;;;;;4931442;29;20048;-84
2021/12/01 13:08:25;;;;;;;19.83;2.20;;;7.70;99.90;;;;;;4929714;29;20056;-84
2021/12/01 13:10:51;;;;;;;15.75;2.55;;;7.70;99.90;;;;;;4931352;29;20484;-83
2021/12/01 13:13:27;;;;;;;12.77;2.22;;;7.70;99.90;;;;;;4925204;29;20131;-83
2021/12/01 13:15:53;;;;;;;15.25;2.03;;;7.70;99.90;;;;;;4914878;29;20040;-83
2021/12/01 13:18:23;;;;;;;16.20;2.72;;;7.80;99.90;;;;;;4930676;29;20525;-83
2021/12/01 13:20:48;;;;;;;13.77;2.30;;;7.60;99.90;;;;;;4915223;29;20542;-84